Data for 12/05/2006

Time Sea-Level Adjusted Pressure Absolute Pressure Temperature Relative Humidity Dew Point   
(mb) (inHg) (mb) (inHg) (C) (F) (%) (C) (F)
00:05 1019 30.09 848 25.04 4.2 39.5 38 -9 15.8
00:10 1019 30.09 848 25.04 5 40.9 37 -8.5 16.7
00:15 1019 30.09 848 25.04 4.7 40.4 38 -8.4 16.9
00:20 1019 30.09 848 25.04 4.3 39.7 40 -8.1 17.3
00:25 1019 30.09 848 25.04 4.1 39.4 41 -8 17.6
00:30 1019 30.09 848 25.04 3.9 39.1 41 -8.3 17.1
00:35 1019 30.09 848 25.04 4.3 39.7 40 -8.1 17.4
00:40 1019 30.09 848 25.04 4.4 39.9 39 -8.3 17.1
00:45 1019 30.09 848 25.04 4.3 39.7 40 -8.3 17.1
00:50 1019 30.09 848 25.04 4 39.2 41 -8.1 17.4
00:55 1019 30.09 848 25.04 3.6 38.5 42 -8 17.6
01:00 1019 30.09 848 25.04 3.5 38.3 43 -7.9 17.8
01:05 1019 30.09 848 25.04 3.6 38.5 42 -8.1 17.5
01:10 1019 30.09 848 25.04 3.9 39 41 -8.3 17
01:15 1019 30.09 848 25.04 4.1 39.4 40 -8.2 17.3
01:20 1019 30.09 848 25.04 4 39.3 40 -8.3 17.1
01:25 1019 30.09 848 25.04 3.8 38.8 42 -8 17.5
01:30 1019 30.09 848 25.04 3.6 38.6 42 -8.1 17.5
01:35 1019 30.09 848 25.04 3.8 38.9 43 -7.6 18.4
01:40 1019 30.09 848 25.04 3.5 38.3 47 -6.9 19.6
01:45 1019 30.09 848 25.04 3.2 37.7 46 -7.4 18.7
01:50 1019 30.09 848 25.04 3.3 38 43 -8.2 17.3
01:55 1019 30.09 848 25.04 4 39.1 41 -8.2 17.2
02:00 1019 30.09 848 25.04 4.2 39.6 41 -7.8 17.9
02:05 1019 30.09 848 25.04 4.1 39.3 42 -7.6 18.3
02:10 1019 30.09 848 25.04 3.9 39.1 42 -7.7 18.1
02:15 1019 30.09 848 25.04 4 39.2 42 -7.9 17.9
02:20 1019 30.09 848 25.04 4.2 39.6 41 -8 17.7
02:25 1019 30.09 848 25.04 4.4 39.9 41 -7.9 17.8
02:30 1019 30.09 848 25.04 4.2 39.5 41 -7.8 18
02:35 1019 30.09 848 25.04 3.7 38.6 42 -7.9 17.7
02:40 1019 30.09 848 25.04 3.3 38 45 -7.6 18.4
02:45 1019 30.09 848 25.04 3.1 37.6 45 -7.7 18.2
02:50 1019 30.09 848 25.04 2.9 37.2 46 -7.5 18.5
02:55 1019 30.09 848 25.04 2.7 36.9 47 -7.6 18.4
03:00 1019 30.09 848 25.04 2.8 37 46 -7.7 18.1
03:05 1019 30.09 848 25.04 2.8 37.1 47 -7.4 18.6
03:10 1019 30.09 848 25.04 2.8 37 47 -7.5 18.6
03:15 1019 30.09 848 25.04 2.9 37.3 48 -7.1 19.2
03:20 1019 30.09 848 25.04 3 37.4 47 -7.3 18.9
03:25 1019 30.09 848 25.04 3.2 37.7 47 -7.2 19.1
03:30 1019 30.09 848 25.04 3.3 37.9 47 -6.9 19.6
03:35 1019 30.09 848 25.04 3.2 37.8 47 -7.1 19.3
03:40 1019 30.09 848 25.04 3.4 38.1 45 -7.3 18.9
03:45 1019 30.09 848 25.04 3.6 38.5 45 -7.4 18.7
03:50 1019 30.09 848 25.04 3.8 38.9 46 -6.8 19.8
03:55 1019 30.09 848 25.04 3.4 38.1 46 -7.2 19.1
04:00 1019 30.09 848 25.04 3.1 37.5 47 -7.1 19.1
04:05 1019 30.09 848 25.04 2.8 37 47 -7.5 18.4
04:10 1019 30.09 848 25.04 2.8 37 47 -7.4 18.7
04:15 1019 30.09 848 25.04 2.8 37.1 48 -7.3 18.9
04:20 1019 30.09 848 25.04 2.8 37 49 -7 19.4
04:25 1019 30.09 848 25.04 2.7 36.9 48 -7.2 19
04:30 1019 30.09 848 25.04 3 37.4 46 -7.4 18.6
04:35 1019 30.09 848 25.04 3.4 38.1 45 -7.4 18.8
04:40 1019 30.09 848 25.04 3.7 38.6 44 -7.3 18.8
04:45 1018 30.06 848 25.04 4 39.2 43 -7.4 18.8
04:50 1018 30.06 848 25.04 4.3 39.7 43 -7.3 18.9
04:55 1018 30.06 848 25.04 4.2 39.6 45 -6.6 20.1
05:00 1018 30.06 848 25.04 4 39.2 45 -6.8 19.8
05:05 1018 30.06 848 25.04 3.9 39.1 49 -5.9 21.4
05:10 1018 30.06 848 25.04 3.5 38.3 51 -5.7 21.8
05:15 1018 30.06 848 25.04 3.6 38.4 49 -6.1 21
05:20 1018 30.06 848 25.04 3.9 39 50 -5.7 21.8
05:25 1018 30.06 848 25.04 3.5 38.4 51 -5.7 21.7
05:30 1018 30.06 848 25.04 3.6 38.5 48 -6.3 20.6
05:35 1019 30.09 848 25.04 4.4 40 43 -7 19.5
05:40 1019 30.09 848 25.04 5.2 41.3 42 -6.8 19.8
05:45 1019 30.09 848 25.04 5.4 41.8 42 -6.3 20.6
05:50 1019 30.09 848 25.04 5.5 41.8 45 -5.6 21.9
05:55 1019 30.09 848 25.04 5.5 42 42 -6.3 20.7
06:00 1019 30.09 848 25.04 5.5 41.8 45 -5.5 22
06:05 1019 30.09 848 25.04 5.2 41.4 46 -5.4 22.3
06:10 1019 30.09 848 25.04 4.5 40.1 49 -5.3 22.5
06:15 1019 30.09 848 25.04 4.7 40.5 48 -5.4 22.4
06:20 1019 30.09 848 25.04 4.9 40.7 47 -5.5 22.1
06:25 1019 30.09 848 25.04 4.4 40 49 -5.3 22.5
06:30 1019 30.09 848 25.04 3.6 38.5 52 -5.4 22.4
06:35 1019 30.09 848 25.04 2.9 37.2 54 -5.5 22
06:40 1019 30.09 848 25.04 2.3 36.1 55 -6 21.2
06:45 1019 30.09 848 25.04 2.1 35.8 54 -6.2 20.9
06:50 1019 30.09 848 25.04 2.1 35.8 55 -6.1 21.1
06:55 1019 30.09 848 25.04 2.1 35.9 54 -6.1 20.9
07:00 1019 30.09 848 25.04 2.4 36.2 52 -6.4 20.5
07:05 1019 30.09 848 25.04 2.8 37 51 -6.3 20.6
07:10 1019 30.09 848 25.04 2.8 37.1 52 -6 21.2
07:15 1019 30.09 848 25.04 2.9 37.2 52 -5.9 21.3
07:20 1019 30.09 848 25.04 2.8 37.1 53 -5.9 21.3
07:25 1019 30.09 848 25.04 2.7 36.9 54 -5.7 21.8
07:30 1019 30.09 848 25.04 2.6 36.6 54 -5.8 21.6
07:35 1019 30.09 848 25.04 2.4 36.4 54 -5.9 21.4
07:40 1019 30.09 848 25.04 2.4 36.3 53 -6.2 20.9
07:45 1019 30.09 848 25.04 2.3 36.2 54 -6.1 21.1
07:50 1019 30.09 848 25.04 2.3 36.1 55 -6 21.3
07:55 1019 30.09 848 25.04 2.2 36 55 -6 21.2
08:00 1019 30.09 848 25.04 2.1 35.7 56 -5.8 21.5
08:05 1019 30.09 848 25.04 1.9 35.5 56 -6 21.3
08:10 1019 30.09 849 25.07 1.8 35.3 56 -6 21.3
08:15 1019 30.09 849 25.07 1.8 35.3 57 -5.8 21.5
08:20 1019 30.09 849 25.07 1.8 35.3 56 -6 21.3
08:25 1020 30.12 849 25.07 1.8 35.2 57 -5.9 21.4
08:30 1020 30.12 849 25.07 1.8 35.2 57 -5.9 21.4
08:35 1020 30.12 849 25.07 1.8 35.2 57 -5.9 21.4
08:40 1020 30.12 849 25.07 1.8 35.3 57 -5.9 21.4
08:45 1020 30.12 849 25.07 1.9 35.5 55 -6.2 20.8
08:50 1020 30.12 849 25.07 2.2 35.9 55 -6 21.1
08:55 1020 30.12 849 25.07 2.2 36 55 -5.8 21.5
09:00 1020 30.12 849 25.07 2.1 35.8 57 -5.5 22.1
09:05 1020 30.12 849 25.07 1.8 35.2 59 -5.3 22.4
09:10 1020 30.12 849 25.07 1.4 34.5 61 -5.2 22.6
09:15 1020 30.12 850 25.1 1.2 34.2 61 -5.4 22.3
09:20 1020 30.12 850 25.1 1.3 34.4 60 -5.7 21.7
09:25 1020 30.12 850 25.1 1.7 35.1 59 -5.5 22.1
09:30 1020 30.12 850 25.1 2.1 35.8 58 -5.3 22.5
09:35 1020 30.12 850 25.1 2.4 36.4 58 -5 23
09:40 1020 30.12 849 25.07 2.6 36.6 58 -4.9 23.1
09:45 1020 30.12 849 25.07 2.7 36.9 58 -4.7 23.5
09:50 1020 30.12 849 25.07 2.8 37.1 58 -4.5 23.9
09:55 1020 30.12 849 25.07 3.1 37.6 56 -4.9 23.2
10:00 1020 30.12 850 25.1 3.6 38.5 55 -4.7 23.6
10:05 1021 30.15 850 25.1 3.5 38.3 56 -4.4 24.1
10:10 1021 30.15 850 25.1 2.8 37.1 57 -4.7 23.5
10:15 1021 30.15 850 25.1 2.6 36.6 64 -3.5 25.6
10:20 1021 30.15 850 25.1 2 35.6 77 -1.6 29.1
10:25 1021 30.15 850 25.1 1.2 34.2 82 -1.5 29.3
10:30 1021 30.15 850 25.1 1.1 33.9 83 -1.5 29.2
10:35 1021 30.15 850 25.1 1.1 33.9 82 -1.6 29.1
10:40 1021 30.15 850 25.1 1.3 34.3 81 -1.7 29
10:45 1021 30.15 850 25.1 1.4 34.5 80 -1.7 29
10:50 1021 30.15 851 25.13 1.5 34.6 80 -1.6 29
10:55 1021 30.15 851 25.13 1.6 34.9 78 -1.8 28.8
11:00 1021 30.15 851 25.13 1.8 35.3 77 -1.7 28.9
11:05 1021 30.15 851 25.13 2 35.6 76 -1.8 28.8
11:10 1021 30.15 851 25.13 2.1 35.8 77 -1.5 29.2
11:15 1021 30.15 851 25.13 2.1 35.8 77 -1.6 29.2
11:20 1022 30.18 851 25.13 2.1 35.8 76 -1.6 29.1
11:25 1022 30.18 851 25.13 2.1 35.7 77 -1.6 29.2
11:30 1022 30.18 851 25.13 2 35.5 77 -1.6 29.1
11:35 1022 30.18 851 25.13 1.9 35.5 78 -1.5 29.2
11:40 1022 30.18 851 25.13 1.9 35.5 78 -1.6 29.2
11:45 1022 30.18 851 25.13 2 35.5 78 -1.5 29.3
11:50 1022 30.18 851 25.13 1.8 35.2 78 -1.6 29.1
11:55 1022 30.18 851 25.13 1.6 34.8 80 -1.5 29.2
12:00 1022 30.18 851 25.13 1.5 34.7 80 -1.7 29
12:05 1022 30.18 851 25.13 1.4 34.6 80 -1.6 29.2
12:10 1022 30.18 851 25.13 1.4 34.5 81 -1.5 29.3
12:15 1022 30.18 851 25.13 1.3 34.4 80 -1.8 28.8
12:20 1022 30.18 851 25.13 1.4 34.5 79 -1.9 28.6
12:25 1022 30.18 851 25.13 1.5 34.7 79 -1.7 28.9
12:30 1022 30.18 851 25.13 1.6 34.9 78 -1.8 28.8
12:35 1022 30.18 851 25.13 1.6 34.9 79 -1.6 29.1
12:40 1022 30.18 851 25.13 1.6 34.8 80 -1.6 29.1
12:45 1022 30.18 851 25.13 1.6 34.8 80 -1.5 29.3
12:50 1022 30.18 851 25.13 1.6 34.9 80 -1.5 29.4
12:55 1022 30.18 851 25.13 1.7 35 80 -1.5 29.4
13:00 1022 30.18 851 25.13 1.7 35.1 80 -1.4 29.5
13:05 1022 30.18 851 25.13 1.7 35.1 83 -0.8 30.5
13:10 1022 30.18 851 25.13 1 33.7 86 -1.1 30
13:15 1022 30.18 851 25.13 1.1 34 86 -1 30.2
13:20 1022 30.18 851 25.13 1 33.8 87 -1 30.2
13:25 1022 30.18 851 25.13 1.2 34.1 85 -1.1 30
13:30 1022 30.18 851 25.13 0.8 33.4 89 -0.8 30.6
13:35 1022 30.18 851 25.13 0.4 32.7 91 -0.9 30.4
13:40 1022 30.18 851 25.13 0.3 32.6 92 -0.9 30.4
13:45 1022 30.18 851 25.13 0.3 32.6 92 -0.8 30.5
13:50 1022 30.18 851 25.13 0.4 32.7 91 -0.9 30.3
13:55 1022 30.18 851 25.13 0.6 33.2 90 -0.9 30.5
14:00 1022 30.18 851 25.13 0.9 33.5 87 -1.1 30.1
14:05 1022 30.18 851 25.13 0.7 33.3 87 -1.2 29.9
14:10 1022 30.18 851 25.13 0.8 33.4 86 -1.4 29.5
14:15 1022 30.18 851 25.13 0.9 33.6 85 -1.4 29.5
14:20 1022 30.18 851 25.13 0.8 33.5 85 -1.5 29.3
14:25 1022 30.18 851 25.13 0.8 33.4 85 -1.5 29.3
14:30 1022 30.18 851 25.13 0.6 33.1 85 -1.6 29.1
14:35 1022 30.18 851 25.13 0.7 33.2 86 -1.4 29.5
14:40 1022 30.18 851 25.13 0.4 32.8 88 -1.3 29.7
14:45 1022 30.18 851 25.13 0.3 32.6 87 -1.5 29.2
14:50 1022 30.18 851 25.13 0.4 32.7 87 -1.5 29.3
14:55 1022 30.18 851 25.13 0.4 32.8 87 -1.5 29.3
15:00 1022 30.18 851 25.13 0.4 32.7 88 -1.4 29.4
15:05 1022 30.18 851 25.13 0.3 32.6 88 -1.4 29.4
15:10 1022 30.18 851 25.13 0.3 32.6 88 -1.4 29.5
15:15 1022 30.18 851 25.13 0.3 32.6 88 -1.5 29.3
15:20 1022 30.18 851 25.13 0.2 32.4 88 -1.5 29.3
15:25 1022 30.18 851 25.13 0.2 32.4 87 -1.6 29
15:30 1022 30.18 851 25.13 0.4 32.8 86 -1.6 29
15:35 1022 30.18 851 25.13 0.5 32.9 86 -1.5 29.3
15:40 1022 30.18 851 25.13 0.6 33 85 -1.7 29
15:45 1022 30.18 852 25.16 0.8 33.5 84 -1.6 29.2
15:50 1022 30.18 852 25.16 0.9 33.6 84 -1.6 29.1
15:55 1022 30.18 852 25.16 0.9 33.6 83 -1.7 29
16:00 1023 30.21 852 25.16 1 33.9 82 -1.6 29.1
16:05 1023 30.21 852 25.16 1.2 34.1 81 -1.7 28.9
16:10 1023 30.21 852 25.16 1.3 34.4 78 -2 28.3
16:15 1023 30.21 852 25.16 1.4 34.5 79 -1.9 28.6
16:20 1023 30.21 852 25.16 1.3 34.3 80 -1.8 28.8
16:25 1023 30.21 852 25.16 1 33.8 82 -1.8 28.7
16:30 1023 30.21 852 25.16 0.7 33.3 83 -1.8 28.8
16:35 1023 30.21 852 25.16 0.7 33.2 83 -1.8 28.7
16:40 1022 30.18 852 25.16 0.6 33.1 83 -1.9 28.6
16:45 1022 30.18 852 25.16 0.7 33.3 82 -2 28.3
16:50 1022 30.18 852 25.16 0.8 33.5 81 -2.1 28.2
16:55 1022 30.18 852 25.16 1 33.7 80 -2 28.3
17:00 1023 30.21 852 25.16 1.2 34.1 78 -2.2 28
17:05 1023 30.21 852 25.16 1.3 34.4 77 -2.2 28
17:10 1023 30.21 852 25.16 1.3 34.4 78 -2.1 28.2
17:15 1023 30.21 852 25.16 1.4 34.6 74 -2.6 27.3
17:20 1023 30.21 852 25.16 1.6 34.9 73 -2.7 27.2
17:25 1023 30.21 852 25.16 1.7 35.1 71 -2.9 26.7
17:30 1023 30.21 852 25.16 1.7 35.1 71 -3 26.6
17:35 1023 30.21 852 25.16 1.6 34.9 71 -3 26.5
17:40 1023 30.21 852 25.16 1.7 35 73 -2.7 27.1
17:45 1023 30.21 852 25.16 1.5 34.8 73 -2.8 26.9
17:50 1023 30.21 852 25.16 1.6 34.9 72 -2.9 26.8
17:55 1023 30.21 852 25.16 1.6 34.9 71 -3.2 26.3
18:00 1023 30.21 853 25.19 1.6 34.9 71 -3.2 26.3
18:05 1023 30.21 853 25.19 1.5 34.7 70 -3.3 26.1
18:10 1023 30.21 853 25.19 1.5 34.8 69 -3.5 25.7
18:15 1023 30.21 853 25.19 1.5 34.6 69 -3.6 25.5
18:20 1023 30.21 853 25.19 1.4 34.5 69 -3.6 25.5
18:25 1023 30.21 853 25.19 1.4 34.5 69 -3.7 25.3
18:30 1024 30.24 853 25.19 1.3 34.3 69 -3.7 25.3
18:35 1024 30.24 853 25.19 1.2 34.1 69 -3.9 25.1
18:40 1024 30.24 853 25.19 1.1 34 70 -3.8 25.2
18:45 1024 30.24 853 25.19 1 33.8 69 -4 24.8
18:50 1024 30.24 853 25.19 1 33.7 70 -4 24.9
18:55 1023 30.21 853 25.19 0.9 33.5 69 -4.3 24.3
19:00 1023 30.21 853 25.19 0.8 33.4 68 -4.4 24.1
19:05 1023 30.21 853 25.19 0.7 33.2 68 -4.6 23.7
19:10 1023 30.21 853 25.19 0.6 33.1 68 -4.6 23.7
19:15 1023 30.21 853 25.19 0.5 32.9 68 -4.7 23.5
19:20 1024 30.24 853 25.19 0.4 32.7 68 -4.8 23.4
19:25 1024 30.24 853 25.19 0.3 32.6 67 -5.1 22.9
19:30 1024 30.24 853 25.19 0.2 32.3 67 -5.2 22.7
19:35 1024 30.24 853 25.19 -0.5 31 70 -5.3 22.4
19:40 1024 30.24 853 25.19 -1.4 29.4 73 -5.7 21.7
19:45 1024 30.24 853 25.19 -1.3 29.6 73 -5.5 22
19:50 1024 30.24 853 25.19 -1.1 30 73 -5.4 22.2
19:55 1024 30.24 853 25.19 -0.9 30.4 72 -5.3 22.4
20:00 1024 30.24 853 25.19 -0.7 30.8 71 -5.3 22.4
20:05 1024 30.24 853 25.19 -0.4 31.3 70 -5.2 22.6
20:10 1024 30.24 853 25.19 -0.1 31.8 68 -5.3 22.5
20:15 1024 30.24 853 25.19 0 32.1 68 -5.2 22.7
20:20 1024 30.24 853 25.19 -0 31.9 68 -5.3 22.5
20:25 1024 30.24 853 25.19 -0.2 31.7 69 -5.3 22.5
20:30 1024 30.24 853 25.19 -0.7 30.8 71 -5.4 22.3
20:35 1024 30.24 854 25.22 -1.8 28.8 76 -5.5 22
20:40 1024 30.24 854 25.22 -2.1 28.3 77 -5.6 21.9
20:45 1024 30.24 854 25.22 -1.9 28.6 74 -6 21.2
20:50 1024 30.24 854 25.22 -2.1 28.3 75 -6 21.3
20:55 1024 30.24 854 25.22 -2.3 27.9 75 -6.2 20.9
21:00 1024 30.24 854 25.22 -1.6 29.2 70 -6.4 20.5
21:05 1025 30.27 854 25.22 -1.2 29.9 69 -6.2 20.8
21:10 1025 30.27 854 25.22 -1 30.3 67 -6.3 20.6
21:15 1024 30.24 854 25.22 -0.9 30.3 69 -6 21.2
21:20 1024 30.24 854 25.22 -1.3 29.7 70 -6 21.2
21:25 1024 30.24 853 25.19 -1.5 29.4 70 -6.3 20.7
21:30 1024 30.24 853 25.19 -1.4 29.5 68 -6.5 20.3
21:35 1024 30.24 854 25.22 -1.6 29.2 69 -6.6 20.1
21:40 1024 30.24 854 25.22 -1.8 28.7 68 -6.9 19.6
21:45 1025 30.27 854 25.22 -1.9 28.5 69 -7 19.4
21:50 1025 30.27 854 25.22 -1.6 29.1 66 -7.1 19.3
21:55 1025 30.27 854 25.22 -1.7 29 67 -7.1 19.2
22:00 1025 30.27 854 25.22 -1.8 28.8 66 -7.2 19
22:05 1025 30.27 854 25.22 -2.2 28.1 67 -7.6 18.4
22:10 1025 30.27 854 25.22 -2.9 26.8 69 -7.8 17.9
22:15 1025 30.27 854 25.22 -3.3 26.1 70 -8.1 17.5
22:20 1025 30.27 854 25.22 -3 26.6 68 -8.1 17.4
22:25 1025 30.27 854 25.22 -2.8 27 67 -8 17.5
22:30 1025 30.27 854 25.22 -2.9 26.9 67 -8.1 17.4
22:35 1025 30.27 854 25.22 -2.2 28 64 -8.1 17.4
22:40 1025 30.27 854 25.22 -1.9 28.7 63 -7.9 17.7
22:45 1025 30.27 854 25.22 -1.6 29.2 62 -7.9 17.9
22:50 1025 30.27 854 25.22 -1.6 29.1 63 -7.8 18
22:55 1025 30.27 854 25.22 -2 28.4 64 -7.8 17.9
23:00 1025 30.27 854 25.22 -2.5 27.4 67 -7.8 18
23:05 1025 30.27 854 25.22 -3.5 25.8 74 -7.5 18.4
23:10 1025 30.27 854 25.22 -3.5 25.7 74 -7.6 18.4
23:15 1025 30.27 854 25.22 -2.9 26.7 74 -6.9 19.6
23:20 1025 30.27 854 25.22 -2.8 27 75 -6.6 20.1
23:25 1025 30.27 854 25.22 -2.9 26.8 74 -6.9 19.6
23:30 1025 30.27 854 25.22 -3.1 26.4 77 -6.6 20.1
23:35 1025 30.27 854 25.22 -3.2 26.3 79 -6.4 20.5
23:40 1025 30.27 854 25.22 -3.5 25.7 77 -7 19.4
23:45 1025 30.27 854 25.22 -3.5 25.6 77 -7.1 19.2
23:50 1025 30.27 854 25.22 -3.7 25.4 77 -7.1 19.1
23:55 1025 30.27 854 25.22 -3.9 25 76 -7.5 18.6
24:00 1025 30.27 854 25.22 -4.1 24.6 78 -7.3 18.8